sensor_id;sensor_type;location;lat;lon;timestamp;P1;durP1;ratioP1;P2;durP2;ratioP2
3817;SDS011;1924;48.078;11.516;2022-11-15T00:00:47;27.20;;;0.80;;
3817;SDS011;1924;48.078;11.516;2022-11-15T00:03:14;27.20;;;0.80;;
3817;SDS011;1924;48.078;11.516;2022-11-15T00:05:41;27.00;;;0.80;;
3817;SDS011;1924;48.078;11.516;2022-11-15T00:08:08;27.20;;;0.80;;
3817;SDS011;1924;48.078;11.516;2022-11-15T00:10:35;27.20;;;0.80;;
3817;SDS011;1924;48.078;11.516;2022-11-15T00:13:04;27.00;;;0.80;;
3817;SDS011;1924;48.078;11.516;2022-11-15T00:15:35;27.27;;;0.80;;
3817;SDS011;1924;48.078;11.516;2022-11-15T00:18:02;27.10;;;0.80;;
3817;SDS011;1924;48.078;11.516;2022-11-15T00:20:30;27.20;;;0.80;;
3817;SDS011;1924;48.078;11.516;2022-11-15T00:22:56;27.20;;;0.80;;
3817;SDS011;1924;48.078;11.516;2022-11-15T00:25:23;27.10;;;0.80;;
3817;SDS011;1924;48.078;11.516;2022-11-15T00:27:50;27.10;;;0.80;;
3817;SDS011;1924;48.078;11.516;2022-11-15T00:30:21;27.10;;;0.80;;
3817;SDS011;1924;48.078;11.516;2022-11-15T00:32:49;27.27;;;0.80;;
3817;SDS011;1924;48.078;11.516;2022-11-15T00:35:16;27.17;;;0.80;;
3817;SDS011;1924;48.078;11.516;2022-11-15T00:37:43;27.27;;;0.80;;
3817;SDS011;1924;48.078;11.516;2022-11-15T00:40:11;27.17;;;0.80;;
3817;SDS011;1924;48.078;11.516;2022-11-15T00:42:38;27.10;;;0.80;;
3817;SDS011;1924;48.078;11.516;2022-11-15T00:45:06;27.10;;;0.80;;
3817;SDS011;1924;48.078;11.516;2022-11-15T00:47:33;27.10;;;0.80;;
3817;SDS011;1924;48.078;11.516;2022-11-15T00:50:01;27.10;;;0.80;;
3817;SDS011;1924;48.078;11.516;2022-11-15T00:52:29;27.00;;;0.80;;
3817;SDS011;1924;48.078;11.516;2022-11-15T00:54:55;27.10;;;0.80;;
3817;SDS011;1924;48.078;11.516;2022-11-15T00:57:23;27.17;;;0.80;;
3817;SDS011;1924;48.078;11.516;2022-11-15T00:59:49;27.20;;;0.80;;
3817;SDS011;1924;48.078;11.516;2022-11-15T01:02:16;27.10;;;0.80;;
3817;SDS011;1924;48.078;11.516;2022-11-15T01:04:43;27.10;;;0.80;;
3817;SDS011;1924;48.078;11.516;2022-11-15T01:07:11;27.17;;;0.80;;
3817;SDS011;1924;48.078;11.516;2022-11-15T01:09:38;27.10;;;0.80;;
3817;SDS011;1924;48.078;11.516;2022-11-15T01:12:05;27.20;;;0.80;;
3817;SDS011;1924;48.078;11.516;2022-11-15T01:14:31;27.10;;;0.80;;
3817;SDS011;1924;48.078;11.516;2022-11-15T01:16:58;27.20;;;0.80;;
3817;SDS011;1924;48.078;11.516;2022-11-15T01:19:25;27.10;;;0.80;;
3817;SDS011;1924;48.078;11.516;2022-11-15T01:21:52;27.00;;;0.80;;
3817;SDS011;1924;48.078;11.516;2022-11-15T01:24:20;27.10;;;0.80;;
3817;SDS011;1924;48.078;11.516;2022-11-15T01:26:47;27.10;;;0.80;;
3817;SDS011;1924;48.078;11.516;2022-11-15T01:29:13;27.00;;;0.80;;
3817;SDS011;1924;48.078;11.516;2022-11-15T01:31:40;27.00;;;0.80;;
3817;SDS011;1924;48.078;11.516;2022-11-15T01:34:07;27.00;;;0.80;;
3817;SDS011;1924;48.078;11.516;2022-11-15T01:36:33;27.00;;;0.90;;
3817;SDS011;1924;48.078;11.516;2022-11-15T01:39:00;26.90;;;0.80;;
3817;SDS011;1924;48.078;11.516;2022-11-15T01:41:29;27.00;;;0.80;;
3817;SDS011;1924;48.078;11.516;2022-11-15T01:44:28;27.10;;;0.80;;
3817;SDS011;1924;48.078;11.516;2022-11-15T01:47:08;26.90;;;0.80;;
3817;SDS011;1924;48.078;11.516;2022-11-15T01:49:37;27.00;;;0.80;;
3817;SDS011;1924;48.078;11.516;2022-11-15T01:52:08;27.17;;;0.80;;
3817;SDS011;1924;48.078;11.516;2022-11-15T01:54:39;27.10;;;0.80;;
3817;SDS011;1924;48.078;11.516;2022-11-15T01:57:08;27.10;;;0.80;;
3817;SDS011;1924;48.078;11.516;2022-11-15T01:59:37;26.90;;;0.80;;
3817;SDS011;1924;48.078;11.516;2022-11-15T02:02:06;27.00;;;0.80;;
3817;SDS011;1924;48.078;11.516;2022-11-15T02:04:34;27.00;;;0.80;;
3817;SDS011;1924;48.078;11.516;2022-11-15T02:07:04;27.10;;;0.80;;
3817;SDS011;1924;48.078;11.516;2022-11-15T02:09:33;26.90;;;0.80;;
3817;SDS011;1924;48.078;11.516;2022-11-15T02:12:01;27.00;;;0.80;;
3817;SDS011;1924;48.078;11.516;2022-11-15T02:14:30;27.00;;;0.80;;
3817;SDS011;1924;48.078;11.516;2022-11-15T02:16:59;27.00;;;0.80;;
3817;SDS011;1924;48.078;11.516;2022-11-15T02:19:40;27.10;;;0.80;;
3817;SDS011;1924;48.078;11.516;2022-11-15T02:22:34;27.10;;;0.80;;
3817;SDS011;1924;48.078;11.516;2022-11-15T02:25:17;26.90;;;0.80;;
3817;SDS011;1924;48.078;11.516;2022-11-15T02:31:08;27.00;;;0.80;;
3817;SDS011;1924;48.078;11.516;2022-11-15T02:33:41;27.00;;;0.80;;
3817;SDS011;1924;48.078;11.516;2022-11-15T02:36:18;27.10;;;0.80;;
3817;SDS011;1924;48.078;11.516;2022-11-15T02:38:54;27.00;;;0.80;;
3817;SDS011;1924;48.078;11.516;2022-11-15T02:41:30;26.80;;;0.80;;
3817;SDS011;1924;48.078;11.516;2022-11-15T02:44:02;27.00;;;0.80;;
3817;SDS011;1924;48.078;11.516;2022-11-15T02:46:34;26.90;;;0.80;;
3817;SDS011;1924;48.078;11.516;2022-11-15T02:49:22;27.10;;;0.80;;
3817;SDS011;1924;48.078;11.516;2022-11-15T02:51:51;27.00;;;0.80;;
3817;SDS011;1924;48.078;11.516;2022-11-15T02:54:21;27.00;;;0.80;;
3817;SDS011;1924;48.078;11.516;2022-11-15T02:56:49;27.10;;;0.80;;
3817;SDS011;1924;48.078;11.516;2022-11-15T02:59:23;26.87;;;0.80;;
3817;SDS011;1924;48.078;11.516;2022-11-15T03:02:06;27.00;;;0.80;;
3817;SDS011;1924;48.078;11.516;2022-11-15T03:04:45;27.03;;;0.80;;
3817;SDS011;1924;48.078;11.516;2022-11-15T03:07:20;26.90;;;0.80;;
3817;SDS011;1924;48.078;11.516;2022-11-15T03:09:55;27.00;;;0.80;;
3817;SDS011;1924;48.078;11.516;2022-11-15T03:12:27;26.80;;;0.80;;
3817;SDS011;1924;48.078;11.516;2022-11-15T03:15:05;27.00;;;0.80;;
3817;SDS011;1924;48.078;11.516;2022-11-15T03:17:35;27.00;;;0.80;;
3817;SDS011;1924;48.078;11.516;2022-11-15T03:20:06;26.90;;;0.80;;
3817;SDS011;1924;48.078;11.516;2022-11-15T03:22:36;26.90;;;0.80;;
3817;SDS011;1924;48.078;11.516;2022-11-15T03:25:07;26.80;;;0.80;;
3817;SDS011;1924;48.078;11.516;2022-11-15T03:27:37;26.70;;;0.80;;
3817;SDS011;1924;48.078;11.516;2022-11-15T03:30:07;26.90;;;0.80;;
3817;SDS011;1924;48.078;11.516;2022-11-15T03:32:37;26.80;;;0.80;;
3817;SDS011;1924;48.078;11.516;2022-11-15T03:35:08;26.80;;;0.80;;
3817;SDS011;1924;48.078;11.516;2022-11-15T03:37:39;26.90;;;0.80;;
3817;SDS011;1924;48.078;11.516;2022-11-15T03:40:10;26.80;;;0.80;;
3817;SDS011;1924;48.078;11.516;2022-11-15T03:42:38;26.80;;;0.80;;
3817;SDS011;1924;48.078;11.516;2022-11-15T03:45:12;26.80;;;0.80;;
3817;SDS011;1924;48.078;11.516;2022-11-15T03:47:43;26.97;;;0.80;;
3817;SDS011;1924;48.078;11.516;2022-11-15T03:50:16;26.80;;;0.80;;
3817;SDS011;1924;48.078;11.516;2022-11-15T03:52:45;26.90;;;0.80;;
3817;SDS011;1924;48.078;11.516;2022-11-15T03:55:13;26.80;;;0.80;;
3817;SDS011;1924;48.078;11.516;2022-11-15T03:57:42;26.90;;;0.80;;
3817;SDS011;1924;48.078;11.516;2022-11-15T04:00:10;26.90;;;0.80;;
3817;SDS011;1924;48.078;11.516;2022-11-15T04:02:37;26.80;;;0.80;;
3817;SDS011;1924;48.078;11.516;2022-11-15T04:05:05;26.80;;;0.80;;
3817;SDS011;1924;48.078;11.516;2022-11-15T04:07:33;26.90;;;0.80;;
3817;SDS011;1924;48.078;11.516;2022-11-15T04:09:59;26.80;;;0.80;;
3817;SDS011;1924;48.078;11.516;2022-11-15T04:12:30;26.90;;;0.80;;
3817;SDS011;1924;48.078;11.516;2022-11-15T04:14:58;26.80;;;0.80;;
3817;SDS011;1924;48.078;11.516;2022-11-15T04:17:35;26.80;;;0.80;;
3817;SDS011;1924;48.078;11.516;2022-11-15T04:20:03;26.87;;;0.80;;
3817;SDS011;1924;48.078;11.516;2022-11-15T04:22:51;26.90;;;0.80;;
3817;SDS011;1924;48.078;11.516;2022-11-15T04:25:36;26.90;;;0.80;;
3817;SDS011;1924;48.078;11.516;2022-11-15T04:28:03;26.80;;;0.80;;
3817;SDS011;1924;48.078;11.516;2022-11-15T04:30:30;26.80;;;0.80;;
3817;SDS011;1924;48.078;11.516;2022-11-15T04:32:57;26.70;;;0.80;;
3817;SDS011;1924;48.078;11.516;2022-11-15T04:35:25;26.70;;;0.80;;
3817;SDS011;1924;48.078;11.516;2022-11-15T04:37:52;26.70;;;0.80;;
3817;SDS011;1924;48.078;11.516;2022-11-15T04:40:18;26.80;;;0.80;;
3817;SDS011;1924;48.078;11.516;2022-11-15T04:42:45;26.50;;;0.80;;
3817;SDS011;1924;48.078;11.516;2022-11-15T04:45:12;26.77;;;0.80;;
3817;SDS011;1924;48.078;11.516;2022-11-15T04:47:39;26.50;;;0.80;;
3817;SDS011;1924;48.078;11.516;2022-11-15T05:00:29;26.70;;;0.80;;
3817;SDS011;1924;48.078;11.516;2022-11-15T05:02:56;26.50;;;0.80;;
3817;SDS011;1924;48.078;11.516;2022-11-15T05:05:40;26.60;;;0.80;;
3817;SDS011;1924;48.078;11.516;2022-11-15T05:08:07;26.80;;;0.80;;
3817;SDS011;1924;48.078;11.516;2022-11-15T05:10:34;26.60;;;0.80;;
3817;SDS011;1924;48.078;11.516;2022-11-15T05:13:01;26.60;;;0.80;;
3817;SDS011;1924;48.078;11.516;2022-11-15T05:15:29;26.80;;;0.80;;
3817;SDS011;1924;48.078;11.516;2022-11-15T05:17:59;26.80;;;0.80;;
3817;SDS011;1924;48.078;11.516;2022-11-15T05:20:26;26.77;;;0.80;;
3817;SDS011;1924;48.078;11.516;2022-11-15T05:22:53;26.60;;;0.80;;
3817;SDS011;1924;48.078;11.516;2022-11-15T05:25:20;26.70;;;0.80;;
3817;SDS011;1924;48.078;11.516;2022-11-15T05:27:47;26.70;;;0.80;;
3817;SDS011;1924;48.078;11.516;2022-11-15T05:30:14;26.70;;;0.80;;
3817;SDS011;1924;48.078;11.516;2022-11-15T05:32:43;26.70;;;0.80;;
3817;SDS011;1924;48.078;11.516;2022-11-15T05:35:12;26.70;;;0.80;;
3817;SDS011;1924;48.078;11.516;2022-11-15T05:37:44;26.60;;;0.80;;
3817;SDS011;1924;48.078;11.516;2022-11-15T05:40:11;26.60;;;0.80;;
3817;SDS011;1924;48.078;11.516;2022-11-15T05:42:37;26.77;;;0.80;;
3817;SDS011;1924;48.078;11.516;2022-11-15T05:45:07;26.50;;;0.80;;
3817;SDS011;1924;48.078;11.516;2022-11-15T05:47:35;26.60;;;0.80;;
3817;SDS011;1924;48.078;11.516;2022-11-15T05:50:06;26.77;;;0.80;;
3817;SDS011;1924;48.078;11.516;2022-11-15T05:52:37;26.60;;;0.80;;
3817;SDS011;1924;48.078;11.516;2022-11-15T05:55:04;26.60;;;0.80;;
3817;SDS011;1924;48.078;11.516;2022-11-15T05:57:34;26.60;;;0.80;;
3817;SDS011;1924;48.078;11.516;2022-11-15T06:00:02;26.60;;;0.80;;
3817;SDS011;1924;48.078;11.516;2022-11-15T06:02:30;26.50;;;0.80;;
3817;SDS011;1924;48.078;11.516;2022-11-15T06:04:56;26.50;;;0.80;;
3817;SDS011;1924;48.078;11.516;2022-11-15T06:07:25;26.60;;;0.80;;
3817;SDS011;1924;48.078;11.516;2022-11-15T06:09:51;26.60;;;0.80;;
3817;SDS011;1924;48.078;11.516;2022-11-15T06:12:18;26.50;;;0.80;;
3817;SDS011;1924;48.078;11.516;2022-11-15T06:14:45;26.50;;;0.80;;
3817;SDS011;1924;48.078;11.516;2022-11-15T06:17:12;26.50;;;0.80;;
3817;SDS011;1924;48.078;11.516;2022-11-15T06:19:39;26.60;;;0.80;;
3817;SDS011;1924;48.078;11.516;2022-11-15T06:22:05;26.60;;;0.80;;
3817;SDS011;1924;48.078;11.516;2022-11-15T06:24:33;26.70;;;0.80;;
3817;SDS011;1924;48.078;11.516;2022-11-15T06:27:00;26.50;;;0.80;;
3817;SDS011;1924;48.078;11.516;2022-11-15T06:29:27;26.50;;;0.80;;
3817;SDS011;1924;48.078;11.516;2022-11-15T06:31:54;26.67;;;0.80;;
3817;SDS011;1924;48.078;11.516;2022-11-15T06:34:20;26.50;;;0.80;;
3817;SDS011;1924;48.078;11.516;2022-11-15T06:36:47;26.40;;;0.80;;
3817;SDS011;1924;48.078;11.516;2022-11-15T06:39:14;26.30;;;0.80;;
3817;SDS011;1924;48.078;11.516;2022-11-15T06:41:42;26.40;;;0.80;;
3817;SDS011;1924;48.078;11.516;2022-11-15T06:44:09;26.60;;;0.80;;
3817;SDS011;1924;48.078;11.516;2022-11-15T06:46:35;26.60;;;0.80;;
3817;SDS011;1924;48.078;11.516;2022-11-15T06:49:02;26.40;;;0.80;;
3817;SDS011;1924;48.078;11.516;2022-11-15T06:51:29;26.57;;;0.80;;
3817;SDS011;1924;48.078;11.516;2022-11-15T06:53:56;26.40;;;0.80;;
3817;SDS011;1924;48.078;11.516;2022-11-15T06:56:22;26.57;;;0.80;;
3817;SDS011;1924;48.078;11.516;2022-11-15T06:58:50;26.40;;;0.80;;
3817;SDS011;1924;48.078;11.516;2022-11-15T07:01:17;26.57;;;0.90;;
3817;SDS011;1924;48.078;11.516;2022-11-15T07:03:44;26.60;;;0.80;;
3817;SDS011;1924;48.078;11.516;2022-11-15T07:06:11;26.30;;;0.80;;
3817;SDS011;1924;48.078;11.516;2022-11-15T07:08:38;26.50;;;0.80;;
3817;SDS011;1924;48.078;11.516;2022-11-15T07:11:07;26.47;;;0.80;;
3817;SDS011;1924;48.078;11.516;2022-11-15T07:13:35;26.40;;;0.80;;
3817;SDS011;1924;48.078;11.516;2022-11-15T07:16:04;26.40;;;0.80;;
3817;SDS011;1924;48.078;11.516;2022-11-15T07:18:33;26.47;;;0.80;;
3817;SDS011;1924;48.078;11.516;2022-11-15T07:21:00;26.50;;;0.80;;
3817;SDS011;1924;48.078;11.516;2022-11-15T07:23:28;26.40;;;0.80;;
3817;SDS011;1924;48.078;11.516;2022-11-15T07:25:56;26.20;;;0.80;;
3817;SDS011;1924;48.078;11.516;2022-11-15T07:28:23;26.47;;;0.80;;
3817;SDS011;1924;48.078;11.516;2022-11-15T07:30:50;26.40;;;0.80;;
3817;SDS011;1924;48.078;11.516;2022-11-15T07:33:18;26.50;;;0.80;;
3817;SDS011;1924;48.078;11.516;2022-11-15T07:35:45;26.40;;;0.80;;
3817;SDS011;1924;48.078;11.516;2022-11-15T07:38:14;26.30;;;0.80;;
3817;SDS011;1924;48.078;11.516;2022-11-15T07:40:44;26.50;;;0.80;;
3817;SDS011;1924;48.078;11.516;2022-11-15T07:43:11;26.50;;;0.80;;
3817;SDS011;1924;48.078;11.516;2022-11-15T07:45:40;26.30;;;0.80;;
3817;SDS011;1924;48.078;11.516;2022-11-15T07:48:07;26.30;;;0.80;;
3817;SDS011;1924;48.078;11.516;2022-11-15T07:50:36;26.30;;;0.80;;
3817;SDS011;1924;48.078;11.516;2022-11-15T07:53:03;26.50;;;0.80;;
3817;SDS011;1924;48.078;11.516;2022-11-15T07:55:29;26.50;;;0.80;;
3817;SDS011;1924;48.078;11.516;2022-11-15T07:58:00;26.30;;;0.80;;
3817;SDS011;1924;48.078;11.516;2022-11-15T08:00:28;26.40;;;0.80;;
3817;SDS011;1924;48.078;11.516;2022-11-15T08:03:00;26.40;;;0.80;;
3817;SDS011;1924;48.078;11.516;2022-11-15T08:05:28;26.47;;;0.80;;
3817;SDS011;1924;48.078;11.516;2022-11-15T08:07:56;26.50;;;0.80;;
3817;SDS011;1924;48.078;11.516;2022-11-15T08:10:23;26.57;;;0.80;;
3817;SDS011;1924;48.078;11.516;2022-11-15T08:12:56;26.50;;;0.80;;
3817;SDS011;1924;48.078;11.516;2022-11-15T08:15:23;26.50;;;0.80;;
3817;SDS011;1924;48.078;11.516;2022-11-15T08:17:52;26.63;;;0.80;;
3817;SDS011;1924;48.078;11.516;2022-11-15T08:20:20;26.70;;;0.80;;
3817;SDS011;1924;48.078;11.516;2022-11-15T08:22:47;26.60;;;0.80;;
3817;SDS011;1924;48.078;11.516;2022-11-15T08:25:15;26.63;;;0.80;;
3817;SDS011;1924;48.078;11.516;2022-11-15T08:27:42;26.97;;;0.80;;
3817;SDS011;1924;48.078;11.516;2022-11-15T08:30:10;26.90;;;0.80;;
3817;SDS011;1924;48.078;11.516;2022-11-15T08:32:38;26.90;;;0.80;;
3817;SDS011;1924;48.078;11.516;2022-11-15T08:35:05;27.10;;;0.80;;
3817;SDS011;1924;48.078;11.516;2022-11-15T08:37:33;27.00;;;0.80;;
3817;SDS011;1924;48.078;11.516;2022-11-15T08:40:01;27.10;;;0.80;;
3817;SDS011;1924;48.078;11.516;2022-11-15T08:42:29;27.10;;;0.80;;
3817;SDS011;1924;48.078;11.516;2022-11-15T08:44:56;27.10;;;0.80;;
3817;SDS011;1924;48.078;11.516;2022-11-15T08:47:23;27.10;;;0.80;;
3817;SDS011;1924;48.078;11.516;2022-11-15T08:49:50;27.20;;;0.80;;
3817;SDS011;1924;48.078;11.516;2022-11-15T08:52:17;27.20;;;0.80;;
3817;SDS011;1924;48.078;11.516;2022-11-15T08:54:43;27.27;;;0.80;;
3817;SDS011;1924;48.078;11.516;2022-11-15T08:57:10;27.37;;;0.80;;
3817;SDS011;1924;48.078;11.516;2022-11-15T08:59:38;27.30;;;0.80;;
3817;SDS011;1924;48.078;11.516;2022-11-15T09:02:05;27.30;;;0.80;;
3817;SDS011;1924;48.078;11.516;2022-11-15T09:04:32;27.50;;;0.80;;
3817;SDS011;1924;48.078;11.516;2022-11-15T09:06:59;27.40;;;0.80;;
3817;SDS011;1924;48.078;11.516;2022-11-15T09:09:25;27.60;;;0.80;;
3817;SDS011;1924;48.078;11.516;2022-11-15T09:11:52;27.50;;;0.80;;
3817;SDS011;1924;48.078;11.516;2022-11-15T09:14:19;27.80;;;0.80;;
3817;SDS011;1924;48.078;11.516;2022-11-15T09:16:47;28.10;;;0.97;;
3817;SDS011;1924;48.078;11.516;2022-11-15T09:19:14;27.70;;;0.80;;
3817;SDS011;1924;48.078;11.516;2022-11-15T09:21:40;27.70;;;0.80;;
3817;SDS011;1924;48.078;11.516;2022-11-15T09:24:07;27.80;;;0.80;;
3817;SDS011;1924;48.078;11.516;2022-11-15T09:26:34;27.90;;;0.80;;
3817;SDS011;1924;48.078;11.516;2022-11-15T09:29:01;27.70;;;0.80;;
3817;SDS011;1924;48.078;11.516;2022-11-15T09:31:28;27.70;;;0.80;;
3817;SDS011;1924;48.078;11.516;2022-11-15T09:33:56;27.50;;;0.80;;
3817;SDS011;1924;48.078;11.516;2022-11-15T09:36:23;27.70;;;0.80;;
3817;SDS011;1924;48.078;11.516;2022-11-15T09:38:50;27.70;;;0.80;;
3817;SDS011;1924;48.078;11.516;2022-11-15T09:41:31;27.60;;;0.80;;
3817;SDS011;1924;48.078;11.516;2022-11-15T09:44:17;27.77;;;0.90;;
3817;SDS011;1924;48.078;11.516;2022-11-15T09:47:05;27.50;;;0.80;;
3817;SDS011;1924;48.078;11.516;2022-11-15T09:49:47;27.37;;;0.80;;
3817;SDS011;1924;48.078;11.516;2022-11-15T09:52:17;27.40;;;0.80;;
3817;SDS011;1924;48.078;11.516;2022-11-15T09:54:46;27.30;;;0.80;;
3817;SDS011;1924;48.078;11.516;2022-11-15T09:57:15;27.30;;;0.80;;
3817;SDS011;1924;48.078;11.516;2022-11-15T09:59:48;27.30;;;0.80;;
3817;SDS011;1924;48.078;11.516;2022-11-15T10:02:31;27.30;;;0.80;;
3817;SDS011;1924;48.078;11.516;2022-11-15T10:05:09;27.40;;;0.80;;
3817;SDS011;1924;48.078;11.516;2022-11-15T10:07:43;27.50;;;0.80;;
3817;SDS011;1924;48.078;11.516;2022-11-15T10:10:15;27.40;;;0.80;;
3817;SDS011;1924;48.078;11.516;2022-11-15T10:12:49;27.40;;;0.80;;
3817;SDS011;1924;48.078;11.516;2022-11-15T10:15:18;27.50;;;0.80;;
3817;SDS011;1924;48.078;11.516;2022-11-15T10:18:03;27.50;;;0.80;;
3817;SDS011;1924;48.078;11.516;2022-11-15T10:20:44;27.60;;;0.80;;
3817;SDS011;1924;48.078;11.516;2022-11-15T10:23:14;27.60;;;0.80;;
3817;SDS011;1924;48.078;11.516;2022-11-15T10:25:43;27.53;;;0.80;;
3817;SDS011;1924;48.078;11.516;2022-11-15T10:28:12;27.80;;;0.80;;
3817;SDS011;1924;48.078;11.516;2022-11-15T10:30:48;28.00;;;0.80;;
3817;SDS011;1924;48.078;11.516;2022-11-15T10:33:27;27.90;;;0.80;;
3817;SDS011;1924;48.078;11.516;2022-11-15T10:36:15;27.90;;;0.80;;
3817;SDS011;1924;48.078;11.516;2022-11-15T10:38:51;27.90;;;0.80;;
3817;SDS011;1924;48.078;11.516;2022-11-15T10:41:21;27.90;;;0.80;;
3817;SDS011;1924;48.078;11.516;2022-11-15T10:44:01;27.90;;;0.80;;
3817;SDS011;1924;48.078;11.516;2022-11-15T10:46:38;27.90;;;0.80;;
3817;SDS011;1924;48.078;11.516;2022-11-15T10:49:12;27.90;;;0.80;;
3817;SDS011;1924;48.078;11.516;2022-11-15T10:51:42;27.73;;;0.80;;
3817;SDS011;1924;48.078;11.516;2022-11-15T10:54:11;28.00;;;0.80;;
3817;SDS011;1924;48.078;11.516;2022-11-15T10:56:40;27.90;;;0.80;;
3817;SDS011;1924;48.078;11.516;2022-11-15T10:59:14;28.00;;;0.80;;
3817;SDS011;1924;48.078;11.516;2022-11-15T11:01:47;27.90;;;0.80;;
3817;SDS011;1924;48.078;11.516;2022-11-15T11:04:14;28.00;;;0.80;;
3817;SDS011;1924;48.078;11.516;2022-11-15T11:06:50;27.90;;;0.80;;
3817;SDS011;1924;48.078;11.516;2022-11-15T11:09:28;28.00;;;0.80;;
3817;SDS011;1924;48.078;11.516;2022-11-15T11:11:58;27.90;;;0.80;;
3817;SDS011;1924;48.078;11.516;2022-11-15T11:14:26;27.90;;;0.80;;
3817;SDS011;1924;48.078;11.516;2022-11-15T11:16:58;27.90;;;0.80;;
3817;SDS011;1924;48.078;11.516;2022-11-15T11:19:32;27.90;;;0.80;;
3817;SDS011;1924;48.078;11.516;2022-11-15T11:22:12;27.90;;;0.80;;
3817;SDS011;1924;48.078;11.516;2022-11-15T11:24:44;28.00;;;0.80;;
3817;SDS011;1924;48.078;11.516;2022-11-15T11:27:22;27.90;;;0.80;;
3817;SDS011;1924;48.078;11.516;2022-11-15T11:30:06;27.90;;;0.80;;
3817;SDS011;1924;48.078;11.516;2022-11-15T11:35:27;28.00;;;0.80;;
3817;SDS011;1924;48.078;11.516;2022-11-15T11:38:03;28.00;;;0.80;;
3817;SDS011;1924;48.078;11.516;2022-11-15T11:40:44;28.00;;;0.80;;
3817;SDS011;1924;48.078;11.516;2022-11-15T11:43:30;28.10;;;0.80;;
3817;SDS011;1924;48.078;11.516;2022-11-15T11:46:10;28.00;;;0.80;;
3817;SDS011;1924;48.078;11.516;2022-11-15T11:48:46;27.93;;;0.80;;
3817;SDS011;1924;48.078;11.516;2022-11-15T11:51:18;28.10;;;0.80;;
3817;SDS011;1924;48.078;11.516;2022-11-15T11:53:52;28.10;;;0.80;;
3817;SDS011;1924;48.078;11.516;2022-11-15T11:56:22;28.20;;;0.80;;
3817;SDS011;1924;48.078;11.516;2022-11-15T11:58:53;28.17;;;0.80;;
3817;SDS011;1924;48.078;11.516;2022-11-15T12:01:22;28.20;;;0.80;;
3817;SDS011;1924;48.078;11.516;2022-11-15T12:03:51;28.10;;;0.80;;
3817;SDS011;1924;48.078;11.516;2022-11-15T12:06:24;28.20;;;0.80;;
3817;SDS011;1924;48.078;11.516;2022-11-15T12:08:58;28.10;;;0.80;;
3817;SDS011;1924;48.078;11.516;2022-11-15T12:11:28;28.00;;;0.80;;
3817;SDS011;1924;48.078;11.516;2022-11-15T12:14:01;28.00;;;0.80;;
3817;SDS011;1924;48.078;11.516;2022-11-15T12:16:32;28.20;;;0.80;;
3817;SDS011;1924;48.078;11.516;2022-11-15T12:19:00;27.97;;;0.80;;
3817;SDS011;1924;48.078;11.516;2022-11-15T12:21:31;28.10;;;0.80;;
3817;SDS011;1924;48.078;11.516;2022-11-15T12:24:04;28.10;;;0.80;;
3817;SDS011;1924;48.078;11.516;2022-11-15T12:26:38;28.00;;;0.80;;
3817;SDS011;1924;48.078;11.516;2022-11-15T12:29:16;28.20;;;0.80;;
3817;SDS011;1924;48.078;11.516;2022-11-15T12:31:49;28.00;;;0.80;;
3817;SDS011;1924;48.078;11.516;2022-11-15T12:34:36;28.07;;;0.80;;
3817;SDS011;1924;48.078;11.516;2022-11-15T12:37:32;28.00;;;0.80;;
3817;SDS011;1924;48.078;11.516;2022-11-15T12:40:19;28.07;;;0.80;;
3817;SDS011;1924;48.078;11.516;2022-11-15T12:42:58;27.97;;;0.80;;
3817;SDS011;1924;48.078;11.516;2022-11-15T12:45:31;28.07;;;0.80;;
3817;SDS011;1924;48.078;11.516;2022-11-15T12:57:40;28.13;;;0.80;;
3817;SDS011;1924;48.078;11.516;2022-11-15T13:05:57;28.30;;;0.80;;
3817;SDS011;1924;48.078;11.516;2022-11-15T13:08:45;28.40;;;0.80;;
3817;SDS011;1924;48.078;11.516;2022-11-15T13:17:32;28.50;;;0.80;;
3817;SDS011;1924;48.078;11.516;2022-11-15T13:20:20;28.37;;;0.80;;
3817;SDS011;1924;48.078;11.516;2022-11-15T13:22:50;28.40;;;0.80;;
3817;SDS011;1924;48.078;11.516;2022-11-15T13:25:40;28.67;;;0.80;;
3817;SDS011;1924;48.078;11.516;2022-11-15T13:28:21;28.60;;;0.80;;
3817;SDS011;1924;48.078;11.516;2022-11-15T13:30:54;28.67;;;0.80;;
3817;SDS011;1924;48.078;11.516;2022-11-15T13:33:24;28.67;;;0.80;;
3817;SDS011;1924;48.078;11.516;2022-11-15T13:35:53;28.60;;;0.80;;
3817;SDS011;1924;48.078;11.516;2022-11-15T13:38:25;28.50;;;0.80;;
3817;SDS011;1924;48.078;11.516;2022-11-15T13:40:54;28.60;;;0.80;;
3817;SDS011;1924;48.078;11.516;2022-11-15T13:43:28;28.60;;;0.80;;
3817;SDS011;1924;48.078;11.516;2022-11-15T13:48:52;28.57;;;0.80;;
3817;SDS011;1924;48.078;11.516;2022-11-15T13:51:23;28.57;;;0.80;;
3817;SDS011;1924;48.078;11.516;2022-11-15T13:53:54;28.50;;;0.80;;
3817;SDS011;1924;48.078;11.516;2022-11-15T13:56:23;28.37;;;0.80;;
3817;SDS011;1924;48.078;11.516;2022-11-15T13:58:51;28.70;;;0.80;;
3817;SDS011;1924;48.078;11.516;2022-11-15T14:01:19;28.70;;;0.80;;
3817;SDS011;1924;48.078;11.516;2022-11-15T14:03:49;28.70;;;0.80;;
3817;SDS011;1924;48.078;11.516;2022-11-15T14:06:22;28.70;;;0.77;;
3817;SDS011;1924;48.078;11.516;2022-11-15T14:09:00;28.60;;;0.80;;
3817;SDS011;1924;48.078;11.516;2022-11-15T14:11:51;28.60;;;0.80;;
3817;SDS011;1924;48.078;11.516;2022-11-15T14:14:20;28.50;;;0.80;;
3817;SDS011;1924;48.078;11.516;2022-11-15T14:16:48;28.50;;;0.80;;
3817;SDS011;1924;48.078;11.516;2022-11-15T14:19:34;28.47;;;0.80;;
3817;SDS011;1924;48.078;11.516;2022-11-15T14:22:17;28.50;;;0.80;;
3817;SDS011;1924;48.078;11.516;2022-11-15T14:24:47;28.47;;;0.80;;
3817;SDS011;1924;48.078;11.516;2022-11-15T14:27:29;28.47;;;0.80;;
3817;SDS011;1924;48.078;11.516;2022-11-15T14:29:55;28.30;;;0.80;;
3817;SDS011;1924;48.078;11.516;2022-11-15T14:32:23;28.50;;;0.80;;
3817;SDS011;1924;48.078;11.516;2022-11-15T14:34:55;28.50;;;0.80;;
3817;SDS011;1924;48.078;11.516;2022-11-15T14:37:25;28.60;;;0.80;;
3817;SDS011;1924;48.078;11.516;2022-11-15T14:39:53;28.30;;;0.80;;
3817;SDS011;1924;48.078;11.516;2022-11-15T14:42:20;28.30;;;0.80;;
3817;SDS011;1924;48.078;11.516;2022-11-15T14:44:48;28.27;;;0.80;;
3817;SDS011;1924;48.078;11.516;2022-11-15T14:47:15;28.00;;;0.80;;
3817;SDS011;1924;48.078;11.516;2022-11-15T14:49:42;28.10;;;0.80;;
3817;SDS011;1924;48.078;11.516;2022-11-15T14:52:26;28.10;;;0.80;;
3817;SDS011;1924;48.078;11.516;2022-11-15T14:54:55;28.20;;;0.80;;
3817;SDS011;1924;48.078;11.516;2022-11-15T14:57:23;28.20;;;0.80;;
3817;SDS011;1924;48.078;11.516;2022-11-15T14:59:50;28.10;;;0.80;;
3817;SDS011;1924;48.078;11.516;2022-11-15T15:02:18;28.00;;;0.77;;
3817;SDS011;1924;48.078;11.516;2022-11-15T15:04:46;28.10;;;0.77;;
3817;SDS011;1924;48.078;11.516;2022-11-15T15:07:12;28.10;;;0.80;;
3817;SDS011;1924;48.078;11.516;2022-11-15T15:09:41;28.10;;;0.80;;
3817;SDS011;1924;48.078;11.516;2022-11-15T15:12:17;28.00;;;0.80;;
3817;SDS011;1924;48.078;11.516;2022-11-15T15:14:45;28.00;;;0.80;;
3817;SDS011;1924;48.078;11.516;2022-11-15T15:17:13;27.80;;;0.80;;
3817;SDS011;1924;48.078;11.516;2022-11-15T15:19:41;28.10;;;0.80;;
3817;SDS011;1924;48.078;11.516;2022-11-15T15:22:10;28.00;;;0.80;;
3817;SDS011;1924;48.078;11.516;2022-11-15T15:24:41;27.87;;;0.80;;
3817;SDS011;1924;48.078;11.516;2022-11-15T15:27:08;28.10;;;0.80;;
3817;SDS011;1924;48.078;11.516;2022-11-15T15:29:35;27.80;;;0.80;;
3817;SDS011;1924;48.078;11.516;2022-11-15T15:32:02;27.80;;;0.80;;
3817;SDS011;1924;48.078;11.516;2022-11-15T15:34:29;27.90;;;0.80;;
3817;SDS011;1924;48.078;11.516;2022-11-15T15:37:06;28.00;;;0.80;;
3817;SDS011;1924;48.078;11.516;2022-11-15T15:39:34;27.90;;;0.80;;
3817;SDS011;1924;48.078;11.516;2022-11-15T15:42:02;27.90;;;0.80;;
3817;SDS011;1924;48.078;11.516;2022-11-15T15:44:29;27.90;;;0.80;;
3817;SDS011;1924;48.078;11.516;2022-11-15T15:46:56;27.77;;;0.80;;
3817;SDS011;1924;48.078;11.516;2022-11-15T15:49:23;27.70;;;0.80;;